Ridgeway, Connecticut
Current Conditions -  °F | °C
As of 8:56 PM on Saturday 22 Nov 2014 (Local Time) from KHPN Reporting Station
Broken Clouds Broken Clouds  
Wind Chill: 36°   Ceiling: 3700
Heat Index: 41°   Visibility: 10mi
Dew Point: 16°   Wind: 7mph
Humidity: 36%   Direction: 250°WSW
Pressure: 30.2"   Gusts: NA
Location:  41.0876°N, 73.5444°W
Report Text: KHPN 230156Z 25006KT 10SM BKN037 BKN044 05/M09 A3020 RMK AO2 SLP233 T00501089
Loading
Personal Weather Stations






























Interactive Weather Map New forecast layout! Learn more

10-Day Weather Forecast

Advertisements
Track Severe Weather on mobile